Saluda Terrace, South Carolina
Current Conditions -  °F | °C
As of 8:05 PM on Sunday 23 Nov 2014 (Local Time) from KCAE Reporting Station
Light Rain Light Rain  
Wind Chill: 69°   Ceiling: 6000
Heat Index: 69°   Visibility: 5mi
Dew Point: 65°   Wind: 13mph
Humidity: 87%   Direction: 210°SSW
Pressure: 29.82"   Gusts: 26mph
Location:  33.9973°N, 81.0998°W
Report Text: KCAE 240105Z 21011G23KT 5SM -RA BR FEW007 BKN060 OVC070 21/18 A2982 RMK AO2 LTG DSNT NE-S TSE05 FROPA P0005 T02060183
Loading
Personal Weather Stations






























Interactive Weather Map New forecast layout! Learn more

10-Day Weather Forecast

Advertisements
Track Severe Weather on mobile